createdAt,value
2019-01-17T00:02:07.823Z,72.90
2019-01-17T00:05:24.218Z,70.32
2019-01-17T00:08:40.434Z,74.35
2019-01-17T00:11:52.439Z,75.10
2019-01-17T00:15:15.399Z,73.73
2019-01-17T00:18:27.638Z,78.13
2019-01-17T00:21:43.174Z,78.33
2019-01-17T00:25:07.985Z,75.12
2019-01-17T00:28:21.582Z,74.30
2019-01-17T00:31:53.287Z,76.12
2019-01-17T00:35:12.240Z,72.40
2019-01-17T00:38:32.562Z,72.17
2019-01-17T00:41:51.306Z,70.67
2019-01-17T00:45:03.304Z,65.25
2019-01-17T00:48:29.232Z,67.97
2019-01-17T00:51:36.154Z,68.70
2019-01-17T00:54:52.396Z,67.27
2019-01-17T00:58:13.620Z,71.55
2019-01-17T01:01:36.388Z,74.00
2019-01-17T01:04:50.847Z,81.93
2019-01-17T01:08:23.229Z,78.10
2019-01-17T01:11:34.921Z,82.13
2019-01-17T01:14:40.985Z,82.85
2019-01-17T01:17:48.892Z,84.03
2019-01-17T01:20:56.465Z,87.23
2019-01-17T01:24:05.623Z,90.87
2019-01-17T01:27:15.779Z,91.32
2019-01-17T01:30:30.239Z,94.63
2019-01-17T01:33:49.817Z,98.00
2019-01-17T01:37:02.006Z,104.12
2019-01-17T01:40:18.322Z,108.37
2019-01-17T01:43:33.974Z,111.60
2019-01-17T01:46:47.293Z,124.27
2019-01-17T01:49:56.440Z,149.25
2019-01-17T01:53:21.896Z,172.02
2019-01-17T01:56:17.247Z,185.70
2019-01-17T01:59:13.029Z,199.17
2019-01-17T02:02:08.503Z,213.77
2019-01-17T02:05:03.894Z,213.12
2019-01-17T02:07:59.194Z,211.67
2019-01-17T02:10:54.606Z,201.58
2019-01-17T02:13:50.131Z,193.37
2019-01-17T02:16:45.646Z,161.95
2019-01-17T02:19:41.602Z,149.72
2019-01-17T02:22:37.338Z,148.17
2019-01-17T02:25:33.042Z,150.87
2019-01-17T02:28:28.699Z,151.82
2019-01-17T02:31:24.261Z,150.97
2019-01-17T02:34:19.844Z,155.25
2019-01-17T02:37:14.974Z,156.97
2019-01-17T02:40:11.115Z,152.07
2019-01-17T02:43:06.936Z,158.05
2019-01-17T02:46:02.563Z,178.80
2019-01-17T02:48:58.127Z,191.82
2019-01-17T02:51:53.915Z,202.95
2019-01-17T02:54:49.494Z,210.80
2019-01-17T02:57:45.089Z,205.80
2019-01-17T03:00:40.784Z,191.60
2019-01-17T03:03:36.561Z,174.57
2019-01-17T03:06:32.331Z,178.02
2019-01-17T03:09:27.847Z,184.50
2019-01-17T03:12:23.503Z,193.93
2019-01-17T03:15:18.902Z,186.90
2019-01-17T03:18:13.845Z,190.65
2019-01-17T03:21:08.955Z,176.97
2019-01-17T03:24:04.272Z,178.42
2019-01-17T03:26:59.731Z,170.85
2019-01-17T03:29:55.481Z,187.35
2019-01-17T03:32:51.026Z,179.32
2019-01-17T03:35:47.372Z,165.18
2019-01-17T03:38:43.028Z,154.75
2019-01-17T03:41:38.993Z,159.00
2019-01-17T03:44:33.954Z,163.72
2019-01-17T03:47:29.474Z,177.45
2019-01-17T03:50:24.912Z,198.20
2019-01-17T03:53:20.418Z,207.18
2019-01-17T03:56:21.575Z,197.00
2019-01-17T03:59:13.018Z,194.17
2019-01-17T04:02:07.907Z,178.00
2019-01-17T04:05:02.856Z,177.70
2019-01-17T04:07:58.601Z,175.30
2019-01-17T04:10:53.442Z,156.25
2019-01-17T04:13:48.615Z,167.13
2019-01-17T04:16:44.136Z,183.40
2019-01-17T04:19:39.238Z,199.02
2019-01-17T04:22:34.542Z,190.10
2019-01-17T04:25:30.125Z,168.20
2019-01-17T04:28:25.345Z,168.78
2019-01-17T04:31:21.224Z,165.00
2019-01-17T04:34:16.747Z,148.47
2019-01-17T04:37:12.523Z,154.47
2019-01-17T04:40:08.683Z,151.90
2019-01-17T04:43:04.126Z,153.23
2019-01-17T04:46:11.138Z,153.62
2019-01-17T04:49:07.283Z,157.65
2019-01-17T04:52:02.160Z,155.15
2019-01-17T04:55:05.524Z,144.82
2019-01-17T04:57:58.975Z,148.38
2019-01-17T05:00:54.346Z,149.93
2019-01-17T05:03:50.324Z,155.10
2019-01-17T05:22:05.719Z,155.32
2019-01-17T05:25:12.213Z,151.32
2019-01-17T05:28:02.053Z,139.37
2019-01-17T05:30:57.009Z,134.72
2019-01-17T05:33:52.653Z,137.10
2019-01-17T05:36:48.160Z,138.55
2019-01-17T05:39:51.457Z,137.52
2019-01-17T05:42:48.007Z,136.80
2019-01-17T05:45:44.163Z,141.95
2019-01-17T05:48:39.430Z,139.22
2019-01-17T05:51:35.099Z,130.35
2019-01-17T05:54:34.934Z,130.22
2019-01-17T05:57:33.279Z,129.38
2019-01-17T06:00:38.943Z,127.53
2019-01-17T06:03:55.145Z,129.60
2019-01-17T06:07:05.482Z,128.20
2019-01-17T06:10:05.639Z,134.50
2019-01-17T06:13:14.487Z,121.50
2019-01-17T06:16:15.512Z,122.65
2019-01-17T06:19:12.665Z,115.60
2019-01-17T06:22:08.694Z,120.55
2019-01-17T06:25:04.925Z,128.97
2019-01-17T06:27:59.999Z,121.95
2019-01-17T06:30:56.402Z,113.75
2019-01-17T06:33:55.374Z,109.67
2019-01-17T06:36:52.415Z,108.95
2019-01-17T06:39:52.760Z,112.32
2019-01-17T06:42:49.225Z,111.92
2019-01-17T06:45:44.310Z,105.70
2019-01-17T06:48:40.254Z,98.50
2019-01-17T06:51:35.950Z,92.47
2019-01-17T06:54:31.107Z,93.00
2019-01-17T06:57:27.072Z,94.32
2019-01-17T07:00:22.258Z,91.60
2019-01-17T07:03:18.091Z,93.20
2019-01-17T07:06:13.707Z,91.87
2019-01-17T07:09:11.161Z,95.97
2019-01-17T07:12:06.242Z,97.55
2019-01-17T07:15:02.298Z,94.45
2019-01-17T07:18:14.295Z,95.30
2019-01-17T07:21:11.635Z,91.35
2019-01-17T07:24:08.319Z,93.22
2019-01-17T07:27:03.801Z,98.80
2019-01-17T07:29:59.491Z,98.30
2019-01-17T07:32:55.033Z,96.05
2019-01-17T07:35:50.549Z,94.40
2019-01-17T07:38:46.472Z,94.32
2019-01-17T07:41:41.783Z,97.27
2019-01-17T07:44:37.896Z,94.00
2019-01-17T07:47:34.847Z,94.60
2019-01-17T07:50:32.697Z,91.80
2019-01-17T07:53:30.802Z,88.87
2019-01-17T07:56:28.193Z,90.42
2019-01-17T07:59:24.805Z,89.92
2019-01-17T08:02:21.552Z,91.20
2019-01-17T08:05:19.903Z,91.50
2019-01-17T08:08:17.635Z,92.67
2019-01-17T08:11:13.672Z,94.97
2019-01-17T08:14:09.227Z,87.65
2019-01-17T08:17:09.468Z,87.72
2019-01-17T08:20:05.221Z,88.30
2019-01-17T08:23:02.323Z,84.30
2019-01-17T08:25:59.038Z,85.70
2019-01-17T08:29:04.704Z,82.57
2019-01-17T08:32:00.572Z,77.50
2019-01-17T08:34:58.814Z,77.62
2019-01-17T08:37:55.176Z,75.97
2019-01-17T08:40:52.197Z,72.85
2019-01-17T08:43:52.187Z,76.75
2019-01-17T08:46:45.656Z,79.47
2019-01-17T08:49:41.229Z,73.20
2019-01-17T08:52:42.300Z,70.97
2019-01-17T08:55:38.629Z,58.23
2019-01-17T08:58:35.191Z,56.95
2019-01-17T09:01:31.178Z,57.35
2019-01-17T09:04:26.858Z,55.03
2019-01-17T09:07:22.965Z,53.10
2019-01-17T09:10:36.899Z,52.05
2019-01-17T09:13:38.704Z,52.73
2019-01-17T09:16:34.240Z,47.33
2019-01-17T09:19:29.711Z,44.75
2019-01-17T09:22:24.827Z,43.78
2019-01-17T09:25:20.774Z,43.17
2019-01-17T09:28:16.197Z,47.75
2019-01-17T09:31:20.278Z,41.88
2019-01-17T09:34:16.068Z,40.55
2019-01-17T09:37:13.307Z,41.33
2019-01-17T09:40:10.107Z,42.93
2019-01-17T09:43:05.094Z,43.90
2019-01-17T09:46:00.551Z,44.40
2019-01-17T09:48:55.910Z,43.40
2019-01-17T09:51:51.537Z,44.38
2019-01-17T09:54:47.975Z,43.02
2019-01-17T09:57:43.515Z,41.80
2019-01-17T10:00:39.487Z,44.48
2019-01-17T10:03:38.451Z,45.08
2019-01-17T10:06:35.331Z,47.05
2019-01-17T10:09:32.073Z,46.10
2019-01-17T10:12:33.045Z,41.83
2019-01-17T10:15:44.416Z,40.75
2019-01-17T10:19:10.870Z,40.63
2019-01-17T10:22:50.839Z,38.98
2019-01-17T10:25:57.407Z,38.55
2019-01-17T10:29:29.721Z,38.73
2019-01-17T10:33:14.821Z,38.13
2019-01-17T10:36:39.124Z,37.03
2019-01-17T10:39:52.879Z,38.70
2019-01-17T10:43:21.008Z,35.13
2019-01-17T10:46:49.924Z,34.35
2019-01-17T10:50:08.894Z,33.92
2019-01-17T10:53:45.987Z,35.13
2019-01-17T10:57:15.470Z,34.33
2019-01-17T11:00:32.940Z,34.20
2019-01-17T11:04:04.264Z,32.67
2019-01-17T11:07:40.572Z,33.23
2019-01-17T11:11:28.056Z,34.25
2019-01-17T11:14:54.859Z,33.50
2019-01-17T11:18:08.189Z,32.95
2019-01-17T11:21:53.220Z,35.50
2019-01-17T11:25:22.740Z,35.13
2019-01-17T11:28:58.501Z,35.25
2019-01-17T11:32:31.218Z,35.38
2019-01-17T11:35:58.388Z,37.90
2019-01-17T11:39:22.771Z,41.60
2019-01-17T11:43:25.221Z,35.52
2019-01-17T11:46:57.732Z,38.00
2019-01-17T11:50:35.408Z,39.08
2019-01-17T11:53:54.082Z,42.73
2019-01-17T11:57:22.632Z,48.28
2019-01-17T12:00:56.190Z,50.92
2019-01-17T12:04:17.816Z,50.15
2019-01-17T12:07:22.067Z,48.65
2019-01-17T12:10:17.125Z,43.20
2019-01-17T12:13:17.406Z,47.43
2019-01-17T12:16:08.968Z,54.73
2019-01-17T12:19:06.402Z,65.65
2019-01-17T12:22:02.009Z,66.28
2019-01-17T12:24:59.120Z,80.77
2019-01-17T12:27:54.701Z,75.50
2019-01-17T12:30:50.574Z,63.00
2019-01-17T12:33:46.541Z,74.80
2019-01-17T12:36:41.758Z,98.97
2019-01-17T12:39:37.075Z,99.28
2019-01-17T12:42:41.538Z,84.62
2019-01-17T12:45:40.043Z,83.62
2019-01-17T12:48:35.144Z,98.62
2019-01-17T12:51:41.737Z,98.00
2019-01-17T12:58:09.387Z,66.30
2019-01-17T13:01:09.563Z,63.92
2019-01-17T13:04:05.726Z,74.50
2019-01-17T13:07:06.949Z,56.25
2019-01-17T13:10:02.621Z,51.75
2019-01-17T13:13:10.533Z,52.03
2019-01-17T13:16:11.789Z,58.15
2019-01-17T13:19:08.282Z,67.20
2019-01-17T13:22:04.032Z,105.60
2019-01-17T13:25:00.252Z,81.72
2019-01-17T13:28:09.853Z,77.87
2019-01-17T13:31:05.971Z,80.10
2019-01-17T13:34:02.156Z,79.60
2019-01-17T13:36:57.988Z,89.52
2019-01-17T13:39:53.856Z,70.17
2019-01-17T13:42:49.538Z,69.10
2019-01-17T13:45:45.240Z,68.65
2019-01-17T13:48:41.260Z,66.33
2019-01-17T13:51:37.551Z,69.27
2019-01-17T13:54:33.598Z,76.90
2019-01-17T13:57:31.472Z,79.62
2019-01-17T14:00:27.198Z,83.42
2019-01-17T14:03:22.175Z,76.85
2019-01-17T14:06:17.823Z,81.45
2019-01-17T14:09:14.362Z,90.90
2019-01-17T14:12:09.832Z,104.17
2019-01-17T14:15:05.671Z,102.05
2019-01-17T14:18:01.260Z,90.25
2019-01-17T14:20:56.553Z,84.40
2019-01-17T14:23:52.819Z,80.87
2019-01-17T14:26:48.556Z,86.25
2019-01-17T14:29:44.151Z,87.57
2019-01-17T14:32:39.326Z,88.47
2019-01-17T14:35:35.019Z,89.17
2019-01-17T14:38:30.950Z,83.25
2019-01-17T14:41:26.265Z,82.82
2019-01-17T14:44:21.874Z,79.27
2019-01-17T14:47:17.941Z,79.67
2019-01-17T14:50:20.914Z,85.87
2019-01-17T14:53:17.019Z,93.82
2019-01-17T14:56:12.405Z,92.72
2019-01-17T14:59:07.848Z,88.75
2019-01-17T15:02:03.837Z,86.10
2019-01-17T15:04:59.068Z,82.57
2019-01-17T15:07:54.940Z,81.35
2019-01-17T15:10:50.802Z,80.47
2019-01-17T15:13:46.199Z,73.78
2019-01-17T15:16:41.170Z,69.90
2019-01-17T15:19:36.575Z,70.75
2019-01-17T15:22:31.616Z,69.67
2019-01-17T15:25:26.678Z,70.22
2019-01-17T15:28:21.723Z,69.77
2019-01-17T15:31:17.263Z,68.10
2019-01-17T15:34:12.763Z,66.10
2019-01-17T15:37:07.651Z,71.33
2019-01-17T15:40:03.209Z,68.60
2019-01-17T15:42:59.371Z,66.30
2019-01-17T15:45:54.622Z,68.05
2019-01-17T15:48:50.267Z,67.70
2019-01-17T15:51:46.643Z,70.95
2019-01-17T15:54:42.606Z,69.67
2019-01-17T15:57:38.969Z,70.32
2019-01-17T16:00:38.012Z,69.58
2019-01-17T16:03:34.568Z,68.30
2019-01-17T16:06:31.015Z,66.53
2019-01-17T16:09:27.946Z,65.50
2019-01-17T16:12:24.790Z,66.47
2019-01-17T16:15:23.824Z,66.00
2019-01-17T16:18:19.514Z,69.00
2019-01-17T16:21:17.280Z,70.05
2019-01-17T16:24:13.009Z,64.53
2019-01-17T16:27:08.524Z,66.55
2019-01-17T16:30:03.737Z,68.25
2019-01-17T16:32:59.559Z,67.97
2019-01-17T16:35:55.551Z,69.03
2019-01-17T16:38:51.462Z,72.42
2019-01-17T16:41:46.458Z,71.92
2019-01-17T16:44:41.827Z,72.35
2019-01-17T16:47:37.123Z,73.52
2019-01-17T16:50:32.923Z,76.25
2019-01-17T16:53:28.095Z,78.33
2019-01-17T16:56:23.992Z,81.47
2019-01-17T16:59:19.469Z,82.05
2019-01-17T17:02:14.868Z,78.17
2019-01-17T17:05:10.546Z,79.45
2019-01-17T17:08:05.824Z,77.45
2019-01-17T17:11:00.372Z,76.95
2019-01-17T17:13:56.734Z,72.42
2019-01-17T17:16:52.143Z,66.47
2019-01-17T17:19:47.571Z,65.32
2019-01-17T17:22:43.000Z,69.37
2019-01-17T17:25:39.172Z,66.00
2019-01-17T17:28:34.406Z,71.07
2019-01-17T17:31:30.488Z,72.60
2019-01-17T17:34:25.873Z,73.02
2019-01-17T17:37:22.997Z,71.25
2019-01-17T17:40:23.714Z,67.03
2019-01-17T17:43:18.885Z,74.60
2019-01-17T17:46:14.166Z,67.97
2019-01-17T17:49:09.574Z,65.52
2019-01-17T17:52:04.879Z,65.42
2019-01-17T17:54:59.511Z,72.87
2019-01-17T17:57:54.505Z,61.90
2019-01-17T18:01:13.748Z,64.20
2019-01-17T18:04:09.080Z,61.80
2019-01-17T18:07:04.746Z,67.20
2019-01-17T18:09:59.997Z,60.20
2019-01-17T18:12:54.666Z,57.73
2019-01-17T18:15:50.991Z,58.33
2019-01-17T18:18:46.604Z,60.45
2019-01-17T18:21:42.179Z,61.13
2019-01-17T18:24:37.592Z,62.25
2019-01-17T18:27:33.252Z,64.40
2019-01-17T18:30:28.859Z,67.25
2019-01-17T18:33:25.182Z,62.83
2019-01-17T18:36:20.774Z,67.30
2019-01-17T18:39:16.451Z,69.17
2019-01-17T18:42:12.167Z,70.70
2019-01-17T18:45:07.894Z,72.12
2019-01-17T18:48:04.159Z,72.53
2019-01-17T18:50:59.646Z,75.78
2019-01-17T18:53:54.950Z,79.80
2019-01-17T18:56:50.500Z,80.75
2019-01-17T18:59:46.002Z,78.90
2019-01-17T19:02:41.875Z,80.17
2019-01-17T19:05:37.435Z,81.45
2019-01-17T19:08:33.387Z,78.17
2019-01-17T19:11:28.785Z,74.80
2019-01-17T19:14:24.203Z,81.80
2019-01-17T19:17:19.671Z,79.85
2019-01-17T19:20:17.329Z,99.77
2019-01-17T19:23:13.206Z,93.40
2019-01-17T19:26:09.050Z,87.10
2019-01-17T19:29:04.437Z,87.10
2019-01-17T19:32:00.735Z,90.17
2019-01-17T19:34:56.490Z,89.10
2019-01-17T19:37:51.944Z,91.53
2019-01-17T19:40:47.095Z,91.92
2019-01-17T19:43:42.438Z,95.90
2019-01-17T19:46:38.106Z,101.38
2019-01-17T19:49:33.792Z,104.38
2019-01-17T19:52:29.522Z,107.78
2019-01-17T19:55:25.131Z,111.32
2019-01-17T19:58:21.651Z,124.50
2019-01-17T20:01:17.599Z,124.65
2019-01-17T20:04:13.475Z,125.95
2019-01-17T20:07:09.223Z,130.67
2019-01-17T20:10:04.516Z,131.05
2019-01-17T20:12:59.921Z,135.50
2019-01-17T20:15:55.099Z,142.75
2019-01-17T20:18:50.506Z,164.20
2019-01-17T20:21:45.732Z,161.62
2019-01-17T20:24:40.992Z,169.17
2019-01-17T20:27:36.351Z,167.80
2019-01-17T20:30:34.124Z,171.40
2019-01-17T20:33:29.470Z,163.25
2019-01-17T20:36:24.716Z,171.45
2019-01-17T20:39:20.323Z,167.47
2019-01-17T20:42:15.893Z,172.15
2019-01-17T20:45:12.355Z,164.22
2019-01-17T20:48:08.240Z,163.72
2019-01-17T20:51:03.901Z,159.07
2019-01-17T20:53:59.673Z,157.20
2019-01-17T20:56:55.274Z,152.57
2019-01-17T20:59:50.297Z,148.62
2019-01-17T21:02:45.746Z,146.50
2019-01-17T21:05:40.778Z,140.03
2019-01-17T21:08:37.104Z,146.87
2019-01-17T21:11:31.609Z,137.45
2019-01-17T21:14:26.842Z,133.40
2019-01-17T21:17:22.249Z,134.67
2019-01-17T21:20:18.720Z,132.20
2019-01-17T21:23:13.428Z,134.20
2019-01-17T21:26:08.808Z,132.55
2019-01-17T21:29:04.863Z,134.20
2019-01-17T21:32:00.265Z,139.60
2019-01-17T21:34:55.682Z,139.15
2019-01-17T21:37:51.064Z,137.07
2019-01-17T21:40:46.175Z,144.40
2019-01-17T21:43:41.569Z,155.32
2019-01-17T21:46:36.743Z,180.35
2019-01-17T21:49:31.932Z,192.57
2019-01-17T21:52:27.560Z,165.07
2019-01-17T21:55:23.124Z,162.20
2019-01-17T21:58:18.708Z,159.67
2019-01-17T22:01:13.886Z,155.50
2019-01-17T22:04:09.450Z,154.70
2019-01-17T22:07:18.016Z,155.97
2019-01-17T22:10:14.063Z,156.43
2019-01-17T22:13:09.653Z,156.30
2019-01-17T22:16:05.402Z,163.72
2019-01-17T22:19:00.308Z,158.25
2019-01-17T22:21:55.354Z,159.37
2019-01-17T22:24:50.902Z,157.88
2019-01-17T22:27:46.665Z,157.82
2019-01-17T22:30:42.031Z,159.03
2019-01-17T22:33:37.630Z,152.15
2019-01-17T22:36:32.886Z,157.40
2019-01-17T22:39:28.789Z,150.35
2019-01-17T22:42:24.201Z,150.30
2019-01-17T22:45:22.378Z,149.45
2019-01-17T22:48:18.237Z,150.90
2019-01-17T22:51:13.697Z,151.90
2019-01-17T22:54:08.983Z,152.53
2019-01-17T22:57:04.303Z,149.55
2019-01-17T22:59:59.417Z,145.00
2019-01-17T23:02:54.772Z,148.13
2019-01-17T23:05:49.918Z,148.78
2019-01-17T23:08:45.236Z,151.10
2019-01-17T23:11:40.901Z,149.72
2019-01-17T23:14:36.146Z,155.40
2019-01-17T23:17:31.288Z,147.95
2019-01-17T23:20:26.303Z,145.70
2019-01-17T23:23:21.972Z,144.28
2019-01-17T23:26:17.540Z,145.28
2019-01-17T23:29:15.919Z,148.50
2019-01-17T23:32:08.464Z,150.30
2019-01-17T23:35:03.803Z,153.93
2019-01-17T23:38:00.054Z,155.25
2019-01-17T23:40:55.485Z,156.50
2019-01-17T23:43:50.610Z,156.90
2019-01-17T23:46:45.753Z,153.38
2019-01-17T23:49:40.985Z,154.57
2019-01-17T23:52:36.107Z,152.32
2019-01-17T23:55:31.449Z,156.47
2019-01-17T23:58:26.638Z,156.05
